createdAt,value
2023-01-28T00:01:24.793Z,31.45
2023-01-28T00:03:52.318Z,30.80
2023-01-28T00:06:19.438Z,30.00
2023-01-28T00:08:46.178Z,29.63
2023-01-28T00:11:13.765Z,31.85
2023-01-28T00:13:40.875Z,32.17
2023-01-28T00:16:09.002Z,29.98
2023-01-28T00:18:36.736Z,31.63
2023-01-28T00:21:10.499Z,30.65
2023-01-28T00:23:38.558Z,35.17
2023-01-28T00:26:07.977Z,33.25
2023-01-28T00:28:35.515Z,35.33
2023-01-28T00:31:10.848Z,33.45
2023-01-28T00:33:37.963Z,33.80
2023-01-28T00:36:06.520Z,34.03
2023-01-28T00:38:33.544Z,32.72
2023-01-28T00:41:11.492Z,35.33
2023-01-28T00:43:38.771Z,31.65
2023-01-28T00:46:09.655Z,35.33
2023-01-28T00:48:40.040Z,32.75
2023-01-28T00:51:07.948Z,32.17
2023-01-28T00:53:36.390Z,32.70
2023-01-28T00:56:05.672Z,34.10
2023-01-28T00:58:33.082Z,35.30
2023-01-28T01:01:15.143Z,31.10
2023-01-28T01:03:42.089Z,31.55
2023-01-28T01:06:10.010Z,34.03
2023-01-28T01:08:40.005Z,32.38
2023-01-28T01:11:08.026Z,33.28
2023-01-28T01:13:35.318Z,33.25
2023-01-28T01:16:13.751Z,29.25
2023-01-28T01:18:43.630Z,30.73
2023-01-28T01:21:12.848Z,27.75
2023-01-28T01:23:40.236Z,33.93
2023-01-28T01:26:07.725Z,35.50
2023-01-28T01:28:34.463Z,30.55
2023-01-28T01:31:03.216Z,36.80
2023-01-28T01:33:31.120Z,32.92
2023-01-28T01:36:00.576Z,34.20
2023-01-28T01:38:28.074Z,35.53
2023-01-28T01:41:02.386Z,34.22
2023-01-28T01:43:53.453Z,31.35
2023-01-28T01:46:45.508Z,33.70
2023-01-28T01:49:17.974Z,33.00
2023-01-28T01:51:47.315Z,34.38
2023-01-28T01:54:15.502Z,34.05
2023-01-28T01:56:44.682Z,32.08
2023-01-28T01:59:14.077Z,36.30
2023-01-28T02:01:41.879Z,37.13
2023-01-28T02:04:28.840Z,34.75
2023-01-28T02:06:58.314Z,31.80
2023-01-28T02:09:30.324Z,35.15
2023-01-28T02:12:03.850Z,33.92
2023-01-28T02:14:33.941Z,33.22
2023-01-28T02:20:02.416Z,34.85
2023-01-28T02:22:48.331Z,32.33
2023-01-28T02:25:47.630Z,36.30
2023-01-28T02:28:46.376Z,30.07
2023-01-28T02:31:32.146Z,32.72
2023-01-28T02:34:22.692Z,33.72
2023-01-28T02:36:59.635Z,30.00
2023-01-28T02:39:32.629Z,31.85
2023-01-28T02:42:13.629Z,31.90
2023-01-28T02:44:40.319Z,30.40
2023-01-28T02:47:37.135Z,30.02
2023-01-28T02:50:11.653Z,27.67
2023-01-28T02:53:24.287Z,27.73
2023-01-28T02:56:14.837Z,28.27
2023-01-28T02:59:27.933Z,29.45
2023-01-28T03:02:03.640Z,28.10
2023-01-28T03:05:05.908Z,28.15
2023-01-28T03:07:35.879Z,28.00
2023-01-28T03:10:06.217Z,30.42
2023-01-28T03:12:54.033Z,29.23
2023-01-28T03:15:43.999Z,28.45
2023-01-28T03:18:40.694Z,30.70
2023-01-28T03:21:40.430Z,25.48
2023-01-28T03:24:31.417Z,29.40
2023-01-28T03:27:23.978Z,28.20
2023-01-28T03:30:12.503Z,29.80
2023-01-28T03:32:59.534Z,25.30
2023-01-28T03:35:51.618Z,24.45
2023-01-28T03:38:22.880Z,27.73
2023-01-28T03:41:01.220Z,29.35
2023-01-28T03:43:30.608Z,25.67
2023-01-28T03:45:57.773Z,28.60
2023-01-28T03:48:26.661Z,27.70
2023-01-28T03:50:55.485Z,29.33
2023-01-28T03:53:22.282Z,26.35
2023-01-28T03:55:51.398Z,29.98
2023-01-28T03:58:19.447Z,28.17
2023-01-28T04:00:46.360Z,29.13
2023-01-28T04:03:19.173Z,27.30
2023-01-28T04:06:09.826Z,27.90
2023-01-28T04:08:36.617Z,27.20
2023-01-28T04:11:15.618Z,30.80
2023-01-28T04:13:43.076Z,30.15
2023-01-28T04:16:11.442Z,30.52
2023-01-28T04:18:38.605Z,27.27
2023-01-28T04:21:05.723Z,31.85
2023-01-28T04:23:32.473Z,30.52
2023-01-28T04:25:59.187Z,28.05
2023-01-28T04:28:25.984Z,27.83
2023-01-28T04:30:55.464Z,27.63
2023-01-28T04:33:22.660Z,30.33
2023-01-28T04:35:49.344Z,28.83
2023-01-28T04:38:18.416Z,29.90
2023-01-28T04:40:45.137Z,29.48
2023-01-28T04:43:11.835Z,32.42
2023-01-28T04:45:38.557Z,29.95
2023-01-28T04:48:05.392Z,30.08
2023-01-28T04:50:32.097Z,29.80
2023-01-28T04:52:58.825Z,27.38
2023-01-28T04:55:27.676Z,25.02
2023-01-28T04:57:54.370Z,30.02
2023-01-28T05:00:25.667Z,28.80
2023-01-28T05:02:52.416Z,28.35
2023-01-28T05:05:19.232Z,34.10
2023-01-28T05:07:52.372Z,29.88
2023-01-28T05:10:19.639Z,35.90
2023-01-28T05:12:47.763Z,31.20
2023-01-28T05:15:21.089Z,25.98
2023-01-28T05:17:47.978Z,28.25
2023-01-28T05:20:15.215Z,29.52
2023-01-28T05:22:45.125Z,31.25
2023-01-28T05:25:11.944Z,28.90
2023-01-28T05:27:38.704Z,29.63
2023-01-28T05:30:06.795Z,32.80
2023-01-28T05:32:34.066Z,27.25
2023-01-28T05:35:01.041Z,30.33
2023-01-28T05:37:27.748Z,28.98
2023-01-28T05:39:54.492Z,30.05
2023-01-28T05:42:22.587Z,33.60
2023-01-28T05:44:49.295Z,31.30
2023-01-28T05:47:17.411Z,34.58
2023-01-28T05:49:44.339Z,30.27
2023-01-28T05:52:13.137Z,31.92
2023-01-28T05:54:39.897Z,28.38
2023-01-28T05:57:08.686Z,29.10
2023-01-28T05:59:35.580Z,31.35
2023-01-28T06:02:02.397Z,31.67
2023-01-28T06:04:29.146Z,35.88
2023-01-28T06:06:55.976Z,33.42
2023-01-28T06:09:22.765Z,34.92
2023-01-28T06:11:50.387Z,35.10
2023-01-28T06:14:17.383Z,29.52
2023-01-28T06:16:44.203Z,31.02
2023-01-28T06:19:12.812Z,29.63
2023-01-28T06:21:39.561Z,33.10
2023-01-28T06:24:06.386Z,29.30
2023-01-28T06:26:33.166Z,30.15
2023-01-28T06:28:59.867Z,27.02
2023-01-28T06:31:26.581Z,25.75
2023-01-28T06:33:53.305Z,27.42
2023-01-28T06:36:20.024Z,23.38
2023-01-28T06:38:46.888Z,27.58
2023-01-28T06:41:13.744Z,25.67
2023-01-28T06:43:40.430Z,27.60
2023-01-28T06:46:07.250Z,29.25
2023-01-28T06:48:34.124Z,27.42
2023-01-28T06:51:00.878Z,26.75
2023-01-28T06:53:27.661Z,23.60
2023-01-28T06:55:54.447Z,27.15
2023-01-28T06:58:23.916Z,26.92
2023-01-28T07:00:50.669Z,24.38
2023-01-28T07:03:19.798Z,25.13
2023-01-28T07:05:49.166Z,23.90
2023-01-28T07:08:15.970Z,24.77
2023-01-28T07:10:43.905Z,25.58
2023-01-28T07:13:11.052Z,26.35
2023-01-28T07:15:38.001Z,24.92
2023-01-28T07:18:04.812Z,27.25
2023-01-28T07:20:34.203Z,26.00
2023-01-28T07:23:00.929Z,24.58
2023-01-28T07:25:30.340Z,25.67
2023-01-28T07:27:57.078Z,26.42
2023-01-28T07:30:26.405Z,26.85
2023-01-28T07:32:55.141Z,27.73
2023-01-28T07:35:22.277Z,25.60
2023-01-28T07:37:53.624Z,26.50
2023-01-28T07:40:21.060Z,26.85
2023-01-28T07:42:49.658Z,28.10
2023-01-28T07:45:16.855Z,28.80
2023-01-28T07:47:43.670Z,29.63
2023-01-28T07:50:12.431Z,29.10
2023-01-28T07:52:44.409Z,28.90
2023-01-28T07:55:15.463Z,29.75
2023-01-28T07:57:49.566Z,31.90
2023-01-28T08:00:17.261Z,30.73
2023-01-28T08:02:48.216Z,29.67
2023-01-28T08:05:22.624Z,29.98
2023-01-28T08:07:49.787Z,28.58
2023-01-28T08:10:18.259Z,26.98
2023-01-28T08:12:58.914Z,28.52
2023-01-28T08:15:25.716Z,27.27
2023-01-28T08:17:55.714Z,26.67
2023-01-28T08:20:23.407Z,27.92
2023-01-28T08:22:50.179Z,25.13
2023-01-28T08:25:17.215Z,30.20
2023-01-28T08:27:43.971Z,26.75
2023-01-28T08:30:17.488Z,24.02
2023-01-28T08:32:46.701Z,24.67
2023-01-28T08:35:13.519Z,23.67
2023-01-28T08:37:40.192Z,23.45
2023-01-28T08:40:07.572Z,25.88
2023-01-28T08:42:36.715Z,23.52
2023-01-28T08:45:04.166Z,25.25
2023-01-28T08:47:30.876Z,27.27
2023-01-28T08:49:57.564Z,24.63
2023-01-28T08:52:24.317Z,25.35
2023-01-28T08:54:51.018Z,26.38
2023-01-28T08:57:17.710Z,28.45
2023-01-28T08:59:53.505Z,24.38
2023-01-28T09:02:31.199Z,26.38
2023-01-28T09:04:58.731Z,24.17
2023-01-28T09:07:25.468Z,24.83
2023-01-28T09:09:56.341Z,26.15
2023-01-28T09:12:23.363Z,28.33
2023-01-28T09:14:50.087Z,23.58
2023-01-28T09:17:17.952Z,24.67
2023-01-28T09:19:44.653Z,25.40
2023-01-28T09:22:11.399Z,26.83
2023-01-28T09:24:39.091Z,26.35
2023-01-28T09:27:05.861Z,26.75
2023-01-28T09:29:34.579Z,24.83
2023-01-28T09:32:01.565Z,26.70
2023-01-28T09:34:28.398Z,27.85
2023-01-28T09:36:57.434Z,26.02
2023-01-28T09:39:25.714Z,22.67
2023-01-28T09:42:32.397Z,22.25
2023-01-28T09:45:29.466Z,22.48
2023-01-28T09:48:00.169Z,25.58
2023-01-28T09:50:36.467Z,22.92
2023-01-28T09:53:06.725Z,23.05
2023-01-28T09:55:37.751Z,23.67
2023-01-28T09:58:10.297Z,22.88
2023-01-28T10:00:46.081Z,23.15
2023-01-28T10:03:47.867Z,22.45
2023-01-28T10:06:23.769Z,22.35
2023-01-28T10:10:07.096Z,21.15
2023-01-28T10:12:41.583Z,23.80
2023-01-28T10:15:23.419Z,22.70
2023-01-28T10:18:03.889Z,24.52
2023-01-28T10:20:57.935Z,23.92
2023-01-28T10:23:41.499Z,23.00
2023-01-28T10:26:21.884Z,25.08
2023-01-28T10:28:54.964Z,21.42
2023-01-28T10:31:23.764Z,22.08
2023-01-28T10:33:51.518Z,20.55
2023-01-28T10:36:19.173Z,18.77
2023-01-28T10:38:46.948Z,21.55
2023-01-28T10:41:19.756Z,20.17
2023-01-28T10:43:48.565Z,20.17
2023-01-28T10:46:32.160Z,19.52
2023-01-28T10:49:15.337Z,21.88
2023-01-28T10:51:45.712Z,21.95
2023-01-28T10:54:30.114Z,19.60
2023-01-28T10:57:06.401Z,20.00
2023-01-28T10:59:36.676Z,20.92
2023-01-28T11:04:48.445Z,24.10
2023-01-28T11:07:25.124Z,20.58
2023-01-28T11:09:52.491Z,20.17
2023-01-28T11:12:30.573Z,20.50
2023-01-28T11:15:08.213Z,20.65
2023-01-28T11:17:38.148Z,18.92
2023-01-28T11:20:19.542Z,20.00
2023-01-28T11:22:48.076Z,20.63
2023-01-28T11:25:37.596Z,20.85
2023-01-28T11:28:15.071Z,18.17
2023-01-28T11:30:42.256Z,18.33
2023-01-28T11:33:28.867Z,16.33
2023-01-28T11:36:07.207Z,18.15
2023-01-28T11:38:36.547Z,18.92
2023-01-28T11:41:06.935Z,20.05
2023-01-28T11:43:33.681Z,18.87
2023-01-28T11:46:18.834Z,20.00
2023-01-28T11:49:04.630Z,21.75
2023-01-28T11:51:48.425Z,20.38
2023-01-28T11:54:26.242Z,18.42
2023-01-28T11:57:18.065Z,19.38
2023-01-28T12:00:06.067Z,19.77
2023-01-28T12:02:53.641Z,19.20
2023-01-28T12:05:43.656Z,18.67
2023-01-28T12:08:27.866Z,18.52
2023-01-28T12:11:13.169Z,20.15
2023-01-28T12:13:45.664Z,20.67
2023-01-28T12:16:38.661Z,18.65
2023-01-28T12:19:29.392Z,17.63
2023-01-28T12:21:59.102Z,16.25
2023-01-28T12:24:53.616Z,16.00
2023-01-28T12:27:20.563Z,15.45
2023-01-28T12:30:21.815Z,15.00
2023-01-28T12:33:26.100Z,17.08
2023-01-28T12:36:26.267Z,15.05
2023-01-28T12:39:28.235Z,15.43
2023-01-28T12:42:08.853Z,16.52
2023-01-28T12:44:42.873Z,14.50
2023-01-28T12:47:17.606Z,15.13
2023-01-28T12:49:53.972Z,16.92
2023-01-28T12:52:41.584Z,15.50
2023-01-28T12:55:29.633Z,13.65
2023-01-28T12:58:02.324Z,14.52
2023-01-28T13:00:33.626Z,16.00
2023-01-28T13:03:36.512Z,14.40
2023-01-28T13:06:15.103Z,12.85
2023-01-28T13:08:41.973Z,13.65
2023-01-28T13:11:16.031Z,15.38
2023-01-28T13:13:45.074Z,16.30
2023-01-28T13:16:12.927Z,18.45
2023-01-28T13:18:44.176Z,18.13
2023-01-28T13:23:41.688Z,19.25
2023-01-28T13:26:51.372Z,19.50
2023-01-28T13:29:24.208Z,20.30
2023-01-28T13:31:56.604Z,20.85
2023-01-28T13:34:26.277Z,20.23
2023-01-28T13:36:56.588Z,21.75
2023-01-28T13:39:25.680Z,19.50
2023-01-28T13:42:22.878Z,21.38
2023-01-28T13:44:50.242Z,25.27
2023-01-28T13:47:27.374Z,20.00
2023-01-28T13:50:00.212Z,22.30
2023-01-28T13:52:54.793Z,20.08
2023-01-28T13:55:41.550Z,19.85
2023-01-28T13:58:30.644Z,20.75
2023-01-28T14:01:16.697Z,19.13
2023-01-28T14:04:13.903Z,22.85
2023-01-28T14:06:59.573Z,21.98
2023-01-28T14:09:46.934Z,22.25
2023-01-28T14:12:39.142Z,20.15
2023-01-28T14:15:21.205Z,18.00
2023-01-28T14:17:58.671Z,18.83
2023-01-28T14:20:37.742Z,18.40
2023-01-28T14:23:13.931Z,18.98
2023-01-28T14:26:02.866Z,17.08
2023-01-28T14:28:50.313Z,20.27
2023-01-28T14:31:36.295Z,18.08
2023-01-28T14:34:28.644Z,17.27
2023-01-28T14:37:09.195Z,17.35
2023-01-28T14:39:55.814Z,18.73
2023-01-28T14:42:37.303Z,19.30
2023-01-28T14:45:29.339Z,20.92
2023-01-28T14:48:02.732Z,25.80
2023-01-28T14:51:01.024Z,21.83
2023-01-28T14:53:39.676Z,23.25
2023-01-28T14:56:21.570Z,20.83
2023-01-28T14:58:57.328Z,23.00
2023-01-28T15:01:28.770Z,20.33
2023-01-28T15:03:55.553Z,21.92
2023-01-28T15:06:25.380Z,22.77
2023-01-28T15:09:07.668Z,19.95
2023-01-28T15:11:39.540Z,27.02
2023-01-28T15:14:16.350Z,20.70
2023-01-28T15:16:48.307Z,19.95
2023-01-28T15:19:15.842Z,18.30
2023-01-28T15:21:45.498Z,20.08
2023-01-28T15:24:18.672Z,19.52
2023-01-28T15:26:48.051Z,22.58
2023-01-28T15:29:38.847Z,19.75
2023-01-28T15:32:05.782Z,17.73
2023-01-28T15:34:36.556Z,17.42
2023-01-28T15:37:03.263Z,17.90
2023-01-28T15:39:30.224Z,21.17
2023-01-28T15:42:06.520Z,18.35
2023-01-28T15:44:40.843Z,18.90
2023-01-28T15:47:15.133Z,18.42
2023-01-28T15:49:47.023Z,19.50
2023-01-28T15:52:14.088Z,19.45
2023-01-28T15:54:43.101Z,19.63
2023-01-28T15:57:33.695Z,20.63
2023-01-28T16:00:08.590Z,21.60
2023-01-28T16:05:54.922Z,18.40
2023-01-28T16:08:49.422Z,23.23
2023-01-28T16:11:24.185Z,20.13
2023-01-28T16:13:51.189Z,23.30
2023-01-28T16:16:31.618Z,24.15
2023-01-28T16:18:59.382Z,19.38
2023-01-28T16:21:29.990Z,23.33
2023-01-28T16:24:02.792Z,23.48
2023-01-28T16:26:32.444Z,22.67
2023-01-28T16:29:11.073Z,22.95
2023-01-28T16:31:37.847Z,18.77
2023-01-28T16:34:07.135Z,21.67
2023-01-28T16:36:36.332Z,17.33
2023-01-28T16:39:03.178Z,21.58
2023-01-28T16:41:35.240Z,18.98
2023-01-28T16:44:08.149Z,17.50
2023-01-28T16:46:34.949Z,16.05
2023-01-28T16:49:02.587Z,16.90
2023-01-28T16:51:29.780Z,19.60
2023-01-28T16:53:58.134Z,16.48
2023-01-28T16:59:18.387Z,18.20
2023-01-28T17:01:45.652Z,18.75
2023-01-28T17:04:13.281Z,18.55
2023-01-28T17:06:45.495Z,19.15
2023-01-28T17:09:14.148Z,21.38
2023-01-28T17:11:41.115Z,18.58
2023-01-28T17:14:08.560Z,19.42
2023-01-28T17:16:35.762Z,16.13
2023-01-28T17:19:06.717Z,16.10
2023-01-28T17:21:33.626Z,19.80
2023-01-28T17:24:01.552Z,18.25
2023-01-28T17:26:34.028Z,18.85
2023-01-28T17:29:03.380Z,18.67
2023-01-28T17:31:30.177Z,21.00
2023-01-28T17:34:00.054Z,23.80
2023-01-28T17:36:28.162Z,21.60
2023-01-28T17:38:55.600Z,23.98
2023-01-28T17:41:22.518Z,25.60
2023-01-28T17:43:56.525Z,28.20
2023-01-28T17:46:27.885Z,24.95
2023-01-28T17:48:54.654Z,22.75
2023-01-28T17:51:21.993Z,21.75
2023-01-28T17:53:50.292Z,21.98
2023-01-28T17:56:32.909Z,21.77
2023-01-28T17:59:03.435Z,24.55
2023-01-28T18:01:30.864Z,22.98
2023-01-28T18:03:59.917Z,23.80
2023-01-28T18:06:36.656Z,25.40
2023-01-28T18:09:04.915Z,22.80
2023-01-28T18:11:32.901Z,23.02
2023-01-28T18:13:59.642Z,22.02
2023-01-28T18:16:28.615Z,23.50
2023-01-28T18:18:55.310Z,25.83
2023-01-28T18:21:34.789Z,24.08
2023-01-28T18:24:07.042Z,24.65
2023-01-28T18:26:41.529Z,23.80
2023-01-28T18:29:08.257Z,26.25
2023-01-28T18:31:40.188Z,26.45
2023-01-28T18:34:06.903Z,23.35
2023-01-28T18:36:35.693Z,28.30
2023-01-28T18:39:02.383Z,24.33
2023-01-28T18:41:29.150Z,22.50
2023-01-28T18:43:55.830Z,22.92
2023-01-28T18:46:22.635Z,26.58
2023-01-28T18:48:49.393Z,29.73
2023-01-28T18:51:28.862Z,23.88
2023-01-28T18:54:01.968Z,24.92
2023-01-28T18:56:29.691Z,24.30
2023-01-28T18:59:04.089Z,26.65
2023-01-28T19:01:35.741Z,23.95
2023-01-28T19:04:03.070Z,22.85
2023-01-28T19:06:30.760Z,27.63
2023-01-28T19:09:00.362Z,24.73
2023-01-28T19:11:29.685Z,25.48
2023-01-28T19:13:57.088Z,24.57
2023-01-28T19:16:24.573Z,22.40
2023-01-28T19:18:59.769Z,25.05
2023-01-28T19:21:29.175Z,23.05
2023-01-28T19:23:57.972Z,22.77
2023-01-28T19:26:26.568Z,23.55
2023-01-28T19:28:53.552Z,22.17
2023-01-28T19:31:26.443Z,24.13
2023-01-28T19:33:56.056Z,24.05
2023-01-28T19:36:24.075Z,22.25
2023-01-28T19:38:50.910Z,22.75
2023-01-28T19:41:17.831Z,22.25
2023-01-28T19:43:45.795Z,23.08
2023-01-28T19:46:16.070Z,23.25
2023-01-28T19:48:43.765Z,23.17
2023-01-28T19:51:12.729Z,25.83
2023-01-28T19:53:43.986Z,24.73
2023-01-28T19:56:17.585Z,24.48
2023-01-28T19:58:46.142Z,25.45
2023-01-28T20:01:21.750Z,28.17
2023-01-28T20:03:56.406Z,24.52
2023-01-28T20:06:28.057Z,27.67
2023-01-28T20:09:03.923Z,26.35
2023-01-28T20:11:33.204Z,25.80
2023-01-28T20:14:00.019Z,26.73
2023-01-28T20:16:32.264Z,24.05
2023-01-28T20:19:07.541Z,23.48
2023-01-28T20:21:34.987Z,21.42
2023-01-28T20:24:03.001Z,22.92
2023-01-28T20:26:34.365Z,24.38
2023-01-28T20:29:12.986Z,24.92
2023-01-28T20:31:44.063Z,25.25
2023-01-28T20:34:16.132Z,24.20
2023-01-28T20:36:43.714Z,24.90
2023-01-28T20:39:10.928Z,24.65
2023-01-28T20:41:39.968Z,28.35
2023-01-28T20:44:06.775Z,27.05
2023-01-28T20:46:36.407Z,24.27
2023-01-28T20:49:06.158Z,29.77
2023-01-28T20:51:37.537Z,25.70
2023-01-28T20:54:04.716Z,27.48
2023-01-28T20:56:41.335Z,29.30
2023-01-28T20:59:10.730Z,25.40
2023-01-28T21:01:39.726Z,26.55
2023-01-28T21:04:09.052Z,30.20
2023-01-28T21:06:37.852Z,32.10
2023-01-28T21:09:08.429Z,29.27
2023-01-28T21:11:38.241Z,34.80
2023-01-28T21:14:05.120Z,28.77
2023-01-28T21:16:32.131Z,30.90
2023-01-28T21:19:01.460Z,29.90
2023-01-28T21:21:29.397Z,29.67
2023-01-28T21:24:07.925Z,28.52
2023-01-28T21:26:34.765Z,28.73
2023-01-28T21:29:03.690Z,29.17
2023-01-28T21:31:30.764Z,27.38
2023-01-28T21:33:59.132Z,31.48
2023-01-28T21:36:26.701Z,32.65
2023-01-28T21:38:55.379Z,31.27
2023-01-28T21:41:22.618Z,32.55
2023-01-28T21:43:54.923Z,29.30
2023-01-28T21:46:42.624Z,33.30
2023-01-28T21:49:11.015Z,33.58
2023-01-28T21:51:45.944Z,30.50
2023-01-28T21:54:16.623Z,29.92
2023-01-28T21:56:48.680Z,30.83
2023-01-28T21:59:32.359Z,30.63
2023-01-28T22:02:02.653Z,28.60
2023-01-28T22:04:35.476Z,32.65
2023-01-28T22:07:03.738Z,31.58
2023-01-28T22:09:33.325Z,31.05
2023-01-28T22:12:01.140Z,32.20
2023-01-28T22:14:27.936Z,32.58
2023-01-28T22:16:54.819Z,33.17
2023-01-28T22:19:21.992Z,32.78
2023-01-28T22:21:48.825Z,30.15
2023-01-28T22:24:20.598Z,31.73
2023-01-28T22:26:49.513Z,32.20
2023-01-28T22:29:18.011Z,31.42
2023-01-28T22:31:50.495Z,31.17
2023-01-28T22:34:18.615Z,31.90
2023-01-28T22:36:46.230Z,31.02
2023-01-28T22:39:15.550Z,34.20
2023-01-28T22:41:43.555Z,31.40
2023-01-28T22:44:10.617Z,33.08
2023-01-28T22:46:37.798Z,31.33
2023-01-28T22:49:05.792Z,32.22
2023-01-28T22:51:38.162Z,31.92
2023-01-28T22:54:05.007Z,30.67
2023-01-28T22:56:32.023Z,34.20
2023-01-28T22:59:01.617Z,35.95
2023-01-28T23:01:28.994Z,33.78
2023-01-28T23:03:56.548Z,33.03
2023-01-28T23:06:25.954Z,35.33
2023-01-28T23:08:54.345Z,35.77
2023-01-28T23:11:28.671Z,31.38
2023-01-28T23:14:22.186Z,33.42
2023-01-28T23:17:08.106Z,28.55
2023-01-28T23:19:53.552Z,32.45
2023-01-28T23:22:46.580Z,33.15
2023-01-28T23:25:15.956Z,31.52
2023-01-28T23:27:43.774Z,30.60
2023-01-28T23:30:12.168Z,30.13
2023-01-28T23:32:43.647Z,31.02
2023-01-28T23:35:11.521Z,28.80
2023-01-28T23:37:38.639Z,32.70
2023-01-28T23:40:08.314Z,30.67
2023-01-28T23:42:35.209Z,30.40
2023-01-28T23:45:02.195Z,30.83
2023-01-28T23:47:28.993Z,30.15
2023-01-28T23:49:56.014Z,31.33
2023-01-28T23:52:23.543Z,34.70
2023-01-28T23:54:50.333Z,27.10
2023-01-28T23:57:17.165Z,29.58
2023-01-28T23:59:47.578Z,31.23
